Time,TemperatureF,DewpointF,PressureIn,WindDirection,WindDirectionDegrees,WindSpeedMPH,WindSpeedGustMPH,Humidity,HourlyPrecipIn,Conditions,Clouds,dailyrainin,SolarRadiationWatts/m^2,SoftwareType,DateUTC
2013-07-25 00:05:00,73.2,62.4,30.05,East,90,0.0,0.0,69,0.00,,,0.00,0,Wunderground v.1.15,2013-07-25 05:05:00,
2013-07-25 00:10:00,72.6,61.8,30.05,East,90,0.0,0.0,69,0.00,,,0.00,0,Wunderground v.1.15,2013-07-25 05:10:00,
2013-07-25 00:20:00,71.5,62.0,30.05,East,90,0.0,0.0,72,0.00,,,0.00,0,Wunderground v.1.15,2013-07-25 05:20:00,
2013-07-25 00:25:00,71.1,61.6,30.05,East,90,0.0,0.0,72,0.00,,,0.00,0,Wunderground v.1.15,2013-07-25 05:25:00,
2013-07-25 00:30:00,70.9,61.8,30.05,East,90,0.0,0.0,73,0.00,,,0.00,0,Wunderground v.1.15,2013-07-25 05:30:00,
2013-07-25 00:40:00,70.7,62.0,30.05,East,90,0.0,0.0,74,0.00,,,0.00,0,Wunderground v.1.15,2013-07-25 05:40:00,
2013-07-25 00:45:00,70.9,61.8,30.05,East,90,0.0,0.0,73,0.00,,,0.00,0,Wunderground v.1.15,2013-07-25 05:45:00,
2013-07-25 00:55:00,70.2,61.9,30.04,East,90,0.0,0.0,75,0.00,,,0.00,0,Wunderground v.1.15,2013-07-25 05:55:00,
2013-07-25 01:00:00,69.6,61.7,30.04,East,90,0.0,0.0,76,0.00,,,0.00,0,Wunderground v.1.15,2013-07-25 06:00:00,
2013-07-25 01:05:00,69.5,62.0,30.04,East,90,0.0,0.0,77,0.00,,,0.00,0,Wunderground v.1.15,2013-07-25 06:05:00,
2013-07-25 01:15:00,70.0,62.1,30.04,East,90,0.0,0.0,76,0.00,,,0.00,0,Wunderground v.1.15,2013-07-25 06:15:00,
2013-07-25 01:25:00,70.1,62.2,30.04,East,90,0.0,0.0,76,0.00,,,0.00,0,Wunderground v.1.15,2013-07-25 06:25:00,
2013-07-25 01:30:00,70.0,62.1,30.04,East,90,0.0,0.0,76,0.00,,,0.00,0,Wunderground v.1.15,2013-07-25 06:30:00,
2013-07-25 01:35:00,69.8,61.9,30.04,East,90,0.0,0.0,76,0.00,,,0.00,0,Wunderground v.1.15,2013-07-25 06:35:00,
2013-07-25 01:40:00,69.6,61.7,30.04,East,90,0.0,0.0,76,0.00,,,0.00,0,Wunderground v.1.15,2013-07-25 06:40:00,
2013-07-25 01:50:00,68.8,61.7,30.05,East,90,0.0,0.0,78,0.00,,,0.00,0,Wunderground v.1.15,2013-07-25 06:50:00,
2013-07-25 01:55:00,68.5,61.4,30.05,East,90,0.0,0.0,78,0.00,,,0.00,0,Wunderground v.1.15,2013-07-25 06:55:00,
2013-07-25 02:00:00,68.8,61.7,30.05,East,90,0.0,0.0,78,0.00,,,0.00,0,Wunderground v.1.15,2013-07-25 07:00:00,
2013-07-25 02:10:00,69.1,61.6,30.05,East,90,0.0,0.0,77,0.00,,,0.00,0,Wunderground v.1.15,2013-07-25 07:10:00,
2013-07-25 02:20:00,68.9,61.8,30.05,East,90,0.0,0.0,78,0.00,,,0.00,0,Wunderground v.1.15,2013-07-25 07:20:00,
2013-07-25 02:25:00,68.9,61.8,30.05,East,90,0.0,0.0,78,0.00,,,0.00,0,Wunderground v.1.15,2013-07-25 07:25:00,
2013-07-25 02:30:00,68.3,61.5,30.05,East,90,0.0,0.0,79,0.00,,,0.00,0,Wunderground v.1.15,2013-07-25 07:30:00,
2013-07-25 02:35:00,68.1,61.3,30.06,East,90,0.0,0.0,79,0.00,,,0.00,0,Wunderground v.1.15,2013-07-25 07:35:00,
2013-07-25 02:45:00,68.2,61.4,30.06,East,90,0.0,0.0,79,0.00,,,0.00,0,Wunderground v.1.15,2013-07-25 07:45:00,
2013-07-25 02:50:00,68.3,61.9,30.06,East,90,0.0,0.0,80,0.00,,,0.00,0,Wunderground v.1.15,2013-07-25 07:50:00,
2013-07-25 02:55:00,68.2,61.4,30.06,East,90,0.0,0.0,79,0.00,,,0.00,0,Wunderground v.1.15,2013-07-25 07:55:00,
2013-07-25 08:20:00,69.2,62.0,30.07,ESE,121,1.0,7.0,78,0.00,,,0.00,183,Wunderground v.1.15,2013-07-25 13:20:00,
2013-07-25 08:30:00,69.7,62.5,30.08,ESE,123,1.0,1.0,78,0.00,,,0.00,225,Wunderground v.1.15,2013-07-25 13:30:00,
2013-07-25 08:40:00,70.3,62.7,30.08,SE,124,0.0,1.0,77,0.00,,,0.00,258,Wunderground v.1.15,2013-07-25 13:40:00,
2013-07-25 08:45:00,70.4,62.5,30.08,SE,134,0.0,1.0,76,0.00,,,0.00,151,Wunderground v.1.15,2013-07-25 13:45:00,
2013-07-25 08:50:00,71.7,63.4,30.09,SE,135,0.0,0.0,75,0.00,,,0.00,151,Wunderground v.1.15,2013-07-25 13:50:00,
2013-07-25 09:00:00,71.3,63.3,30.09,SSE,164,0.0,0.0,76,0.00,,,0.00,304,Wunderground v.1.15,2013-07-25 14:00:00,
2013-07-25 09:10:00,71.2,62.9,30.10,SSW,192,2.0,2.0,75,0.00,,,0.00,385,Wunderground v.1.15,2013-07-25 14:10:00,
2013-07-25 09:15:00,71.6,63.6,30.10,SSW,199,2.0,7.0,76,0.00,,,0.00,413,Wunderground v.1.15,2013-07-25 14:15:00,
2013-07-25 09:20:00,72.1,63.7,30.11,SSW,204,1.0,1.0,75,0.00,,,0.00,462,Wunderground v.1.15,2013-07-25 14:20:00,
2013-07-25 09:30:00,73.3,63.3,30.10,WSW,244,2.0,7.0,71,0.00,,,0.00,519,Wunderground v.1.15,2013-07-25 14:30:00,
2013-07-25 09:40:00,74.2,63.8,30.11,WSW,245,2.0,7.0,70,0.00,,,0.00,380,Wunderground v.1.15,2013-07-25 14:40:00,
2013-07-25 09:45:00,74.8,63.9,30.11,WSW,246,0.0,7.0,69,0.00,,,0.00,434,Wunderground v.1.15,2013-07-25 14:45:00,
2013-07-25 09:55:00,75.1,63.8,30.11,SW,232,0.0,5.0,68,0.00,,,0.00,304,Wunderground v.1.15,2013-07-25 14:55:00,
2013-07-25 10:05:00,76.2,64.0,30.11,SW,231,0.0,1.0,66,0.00,,,0.00,475,Wunderground v.1.15,2013-07-25 15:05:00,
2013-07-25 10:10:00,76.2,64.0,30.11,SW,227,0.0,3.0,66,0.00,,,0.00,258,Wunderground v.1.15,2013-07-25 15:10:00,
2013-07-25 10:20:00,76.9,65.1,30.10,SW,227,0.0,0.0,67,0.00,,,0.00,160,Wunderground v.1.15,2013-07-25 15:20:00,
2013-07-25 10:25:00,77.5,64.4,30.10,SW,227,0.0,0.0,64,0.00,,,0.00,211,Wunderground v.1.15,2013-07-25 15:25:00,
2013-07-25 10:35:00,77.8,63.7,30.10,South,180,1.0,6.0,62,0.00,,,0.00,246,Wunderground v.1.15,2013-07-25 15:35:00,
2013-07-25 10:40:00,77.1,64.4,30.10,South,183,1.0,1.0,65,0.00,,,0.00,265,Wunderground v.1.15,2013-07-25 15:40:00,
2013-07-25 10:50:00,78.4,64.8,30.10,South,181,0.0,5.0,63,0.00,,,0.00,225,Wunderground v.1.15,2013-07-25 15:50:00,
2013-07-25 10:55:00,79.5,64.9,30.10,South,181,0.0,5.0,61,0.00,,,0.00,202,Wunderground v.1.15,2013-07-25 15:55:00,
2013-07-25 11:05:00,78.9,64.8,30.10,South,180,1.0,6.0,62,0.00,,,0.00,237,Wunderground v.1.15,2013-07-25 16:05:00,
2013-07-25 11:10:00,78.6,64.0,30.10,South,178,1.0,4.0,61,0.00,,,0.00,255,Wunderground v.1.15,2013-07-25 16:10:00,
2013-07-25 11:15:00,78.2,63.6,30.10,South,177,0.0,4.0,61,0.00,,,0.00,225,Wunderground v.1.15,2013-07-25 16:15:00,
2013-07-25 11:20:00,78.7,64.1,30.10,SSE,166,1.0,1.0,61,0.00,,,0.00,216,Wunderground v.1.15,2013-07-25 16:20:00,
2013-07-25 11:30:00,80.6,65.4,30.10,SSE,165,0.0,0.0,60,0.00,,,0.00,241,Wunderground v.1.15,2013-07-25 16:30:00,
2013-07-25 11:40:00,79.7,64.6,30.09,SSE,147,3.0,7.0,60,0.00,,,0.00,258,Wunderground v.1.15,2013-07-25 16:40:00,
2013-07-25 11:45:00,80.1,64.0,30.09,SE,134,3.0,9.0,58,0.00,,,0.00,253,Wunderground v.1.15,2013-07-25 16:45:00,
2013-07-25 11:50:00,80.4,63.8,30.09,ESE,109,3.0,8.0,57,0.00,,,0.00,250,Wunderground v.1.15,2013-07-25 16:50:00,
2013-07-25 11:55:00,80.1,64.5,30.09,ESE,118,4.0,10.0,59,0.00,,,0.00,239,Wunderground v.1.15,2013-07-25 16:55:00,
2013-07-25 12:05:00,80.3,64.7,30.09,ESE,113,5.0,11.0,59,0.00,,,0.00,431,Wunderground v.1.15,2013-07-25 17:05:00,
2013-07-25 12:15:00,81.7,62.9,30.09,East,96,3.0,11.0,53,0.00,,,0.00,851,Wunderground v.1.15,2013-07-25 17:15:00,
2013-07-25 12:20:00,82.1,63.8,30.08,ESE,122,4.0,4.0,54,0.00,,,0.00,795,Wunderground v.1.15,2013-07-25 17:20:00,
2013-07-25 12:30:00,82.1,62.2,30.08,ESE,121,4.0,11.0,51,0.00,,,0.00,912,Wunderground v.1.15,2013-07-25 17:30:00,
2013-07-25 12:40:00,81.8,63.0,30.08,SE,146,5.0,11.0,53,0.00,,,0.00,870,Wunderground v.1.15,2013-07-25 17:40:00,
2013-07-25 12:45:00,82.1,62.7,30.08,ESE,109,4.0,12.0,52,0.00,,,0.00,874,Wunderground v.1.15,2013-07-25 17:45:00,
2013-07-25 12:55:00,82.5,63.1,30.07,SSE,155,6.0,13.0,52,0.00,,,0.00,812,Wunderground v.1.15,2013-07-25 17:55:00,
2013-07-25 13:00:00,82.5,62.0,30.07,SE,132,4.0,10.0,50,0.00,,,0.00,877,Wunderground v.1.15,2013-07-25 18:00:00,
2013-07-25 13:10:00,84.0,64.5,30.07,ESE,121,4.0,4.0,52,0.00,,,0.00,919,Wunderground v.1.15,2013-07-25 18:10:00,
2013-07-25 13:15:00,83.4,63.4,30.07,ESE,114,5.0,5.0,51,0.00,,,0.00,485,Wunderground v.1.15,2013-07-25 18:15:00,
2013-07-25 13:25:00,83.8,64.3,30.07,SE,131,3.0,10.0,52,0.00,,,0.00,617,Wunderground v.1.15,2013-07-25 18:25:00,
2013-07-25 13:30:00,83.6,63.6,30.07,East,97,2.0,7.0,51,0.00,,,0.00,443,Wunderground v.1.15,2013-07-25 18:30:00,
2013-07-25 13:35:00,84.1,64.6,30.07,SE,127,1.0,7.0,52,0.00,,,0.00,457,Wunderground v.1.15,2013-07-25 18:35:00,
2013-07-25 13:45:00,84.9,64.2,30.07,ESE,117,1.0,10.0,50,0.00,,,0.00,543,Wunderground v.1.15,2013-07-25 18:45:00,
2013-07-25 13:50:00,84.0,63.9,30.07,ESE,110,1.0,1.0,51,0.00,,,0.00,561,Wunderground v.1.15,2013-07-25 18:50:00,
2013-07-25 14:00:00,84.5,64.9,30.07,East,97,3.0,3.0,52,0.00,,,0.00,519,Wunderground v.1.15,2013-07-25 19:00:00,
2013-07-25 14:05:00,84.2,64.7,30.07,East,93,1.0,6.0,52,0.00,,,0.00,499,Wunderground v.1.15,2013-07-25 19:05:00,
2013-07-25 14:15:00,83.3,64.9,30.07,ESE,119,1.0,6.0,54,0.00,,,0.00,348,Wunderground v.1.15,2013-07-25 19:15:00,
2013-07-25 14:20:00,83.4,65.0,30.07,ESE,121,2.0,7.0,54,0.00,,,0.00,327,Wunderground v.1.15,2013-07-25 19:20:00,
2013-07-25 14:30:00,82.9,64.5,30.06,East,101,2.0,2.0,54,0.00,,,0.00,480,Wunderground v.1.15,2013-07-25 19:30:00,
2013-07-25 14:35:00,83.4,63.9,30.07,ESE,104,2.0,7.0,52,0.00,,,0.00,515,Wunderground v.1.15,2013-07-25 19:35:00,
2013-07-25 14:40:00,82.9,64.0,30.06,ESE,111,2.0,7.0,53,0.00,,,0.00,343,Wunderground v.1.15,2013-07-25 19:40:00,
2013-07-25 14:50:00,83.4,63.9,30.06,ESE,116,2.0,2.0,52,0.00,,,0.00,383,Wunderground v.1.15,2013-07-25 19:50:00,
2013-07-25 14:55:00,82.8,64.5,30.06,ESE,123,2.0,7.0,54,0.00,,,0.00,710,Wunderground v.1.15,2013-07-25 19:55:00,
2013-07-25 15:00:00,83.2,64.3,30.06,SE,136,3.0,3.0,53,0.00,,,0.00,712,Wunderground v.1.15,2013-07-25 20:00:00,
2013-07-25 15:10:00,83.2,64.8,30.06,ESE,115,2.0,2.0,54,0.00,,,0.00,401,Wunderground v.1.15,2013-07-25 20:10:00,
2013-07-25 15:15:00,83.4,64.5,30.06,SE,125,3.0,3.0,53,0.00,,,0.00,396,Wunderground v.1.15,2013-07-25 20:15:00,
2013-07-25 15:30:00,83.8,64.8,30.05,East,90,1.0,7.0,53,0.00,,,0.00,322,Wunderground v.1.15,2013-07-25 20:30:00,
2013-07-25 15:40:00,83.5,65.1,30.04,East,96,3.0,3.0,54,0.00,,,0.00,311,Wunderground v.1.15,2013-07-25 20:40:00,
2013-07-25 15:45:00,83.2,64.8,30.04,ESE,123,3.0,9.0,54,0.00,,,0.00,278,Wunderground v.1.15,2013-07-25 20:45:00,
2013-07-25 15:55:00,83.0,65.2,30.05,SE,126,2.0,7.0,55,0.00,,,0.00,229,Wunderground v.1.15,2013-07-25 20:55:00,
2013-07-25 16:00:00,83.5,65.1,30.04,SE,127,1.0,1.0,54,0.00,,,0.00,220,Wunderground v.1.15,2013-07-25 21:00:00,
2013-07-25 16:05:00,83.5,65.6,30.05,SE,127,0.0,1.0,55,0.00,,,0.00,207,Wunderground v.1.15,2013-07-25 21:05:00,
2013-07-25 16:10:00,83.5,65.6,30.05,SE,125,0.0,0.0,55,0.00,,,0.00,169,Wunderground v.1.15,2013-07-25 21:10:00,
2013-07-25 16:20:00,83.2,64.8,30.05,ESE,121,0.0,4.0,54,0.00,,,0.00,162,Wunderground v.1.15,2013-07-25 21:20:00,
2013-07-25 16:25:00,82.7,64.9,30.05,ESE,119,1.0,6.0,55,0.00,,,0.00,144,Wunderground v.1.15,2013-07-25 21:25:00,
2013-07-25 16:35:00,82.6,65.3,30.05,ESE,119,0.0,0.0,56,0.00,,,0.00,135,Wunderground v.1.15,2013-07-25 21:35:00,
2013-07-25 16:45:00,82.6,64.8,30.06,ESE,119,0.0,0.0,55,0.00,,,0.00,127,Wunderground v.1.15,2013-07-25 21:45:00,
2013-07-25 16:50:00,82.2,64.9,30.06,ESE,119,0.0,0.0,56,0.00,,,0.00,113,Wunderground v.1.15,2013-07-25 21:50:00,
2013-07-25 16:55:00,82.2,64.9,30.06,ESE,119,0.0,0.0,56,0.00,,,0.00,107,Wunderground v.1.15,2013-07-25 21:55:00,
2013-07-25 17:05:00,81.8,64.6,30.06,ESE,119,0.0,0.0,56,0.00,,,0.00,107,Wunderground v.1.15,2013-07-25 22:05:00,
2013-07-25 17:10:00,82.2,64.9,30.06,ESE,119,0.0,0.0,56,0.00,,,0.00,95,Wunderground v.1.15,2013-07-25 22:10:00,
2013-07-25 17:20:00,83.0,65.7,30.06,ESE,119,0.0,0.0,56,0.00,,,0.00,76,Wunderground v.1.15,2013-07-25 22:20:00,
2013-07-25 17:25:00,83.2,65.4,30.06,ESE,119,0.0,0.0,55,0.00,,,0.00,69,Wunderground v.1.15,2013-07-25 22:25:00,
2013-07-25 17:35:00,82.0,67.7,30.06,ESE,119,0.0,0.0,62,0.00,,,0.00,46,Wunderground v.1.15,2013-07-25 22:35:00,
2013-07-25 17:45:00,81.2,69.2,30.07,ESE,118,0.0,0.0,67,0.00,,,0.00,49,Wunderground v.1.15,2013-07-25 22:45:00,
2013-07-25 17:50:00,80.7,70.8,30.07,ESE,117,0.0,0.0,72,0.00,,,0.00,42,Wunderground v.1.15,2013-07-25 22:50:00,
2013-07-25 18:00:00,79.8,71.2,30.06,ESE,115,0.0,0.0,75,0.00,,,0.01,33,Wunderground v.1.15,2013-07-25 23:00:00,
2013-07-25 18:05:00,78.2,70.4,30.06,ESE,114,0.0,0.0,77,0.05,,,0.02,37,Wunderground v.1.15,2013-07-25 23:05:00,
2013-07-25 18:15:00,77.3,70.6,30.06,ESE,114,0.0,0.0,80,0.05,,,0.02,49,Wunderground v.1.15,2013-07-25 23:15:00,
2013-07-25 18:20:00,77.1,70.5,30.06,ESE,114,0.0,0.0,80,0.04,,,0.02,51,Wunderground v.1.15,2013-07-25 23:20:00,
2013-07-25 18:25:00,76.7,70.1,30.05,ESE,110,0.0,0.0,80,0.00,,,0.03,65,Wunderground v.1.15,2013-07-25 23:25:00,
2013-07-25 18:35:00,76.8,70.9,30.05,ESE,114,0.0,0.0,82,0.00,,,0.03,76,Wunderground v.1.15,2013-07-25 23:35:00,
2013-07-25 18:40:00,76.3,70.0,30.04,ESE,115,0.0,0.0,81,0.00,,,0.03,83,Wunderground v.1.15,2013-07-25 23:40:00,
2013-07-25 18:45:00,75.9,69.3,30.04,ESE,121,0.0,0.0,80,0.00,,,0.03,83,Wunderground v.1.15,2013-07-25 23:45:00,
2013-07-25 18:55:00,76.7,69.7,30.03,ESE,123,0.0,0.0,79,0.00,,,0.03,69,Wunderground v.1.15,2013-07-25 23:55:00,
2013-07-25 19:00:00,77.2,70.2,30.03,ESE,123,0.0,0.0,79,0.00,,,0.03,56,Wunderground v.1.15,2013-07-26 00:00:00,
2013-07-25 19:05:00,77.0,70.0,30.03,ESE,123,0.0,0.0,79,0.00,,,0.03,44,Wunderground v.1.15,2013-07-26 00:05:00,
2013-07-25 19:10:00,76.7,70.4,30.02,ESE,123,0.0,0.0,81,0.00,,,0.03,35,Wunderground v.1.15,2013-07-26 00:10:00,
2013-07-25 19:20:00,76.3,70.8,30.02,ESE,123,0.0,0.0,83,0.00,,,0.03,30,Wunderground v.1.15,2013-07-26 00:20:00,
2013-07-25 19:25:00,76.0,70.1,30.02,ESE,123,0.0,0.0,82,0.00,,,0.03,26,Wunderground v.1.15,2013-07-26 00:25:00,
2013-07-25 19:30:00,76.0,70.5,30.03,ESE,123,0.0,0.0,83,0.00,,,0.03,26,Wunderground v.1.15,2013-07-26 00:30:00,
2013-07-25 19:40:00,76.2,70.3,30.02,ESE,123,0.0,0.0,82,0.00,,,0.03,30,Wunderground v.1.15,2013-07-26 00:40:00,
2013-07-25 19:45:00,75.6,70.1,30.02,ESE,123,0.0,0.0,83,0.00,,,0.03,33,Wunderground v.1.15,2013-07-26 00:45:00,
2013-07-25 19:50:00,75.2,70.0,30.02,ESE,123,0.0,0.0,84,0.00,,,0.03,37,Wunderground v.1.15,2013-07-26 00:50:00,
2013-07-25 20:00:00,76.3,71.1,30.02,ESE,123,0.0,0.0,84,0.00,,,0.03,21,Wunderground v.1.15,2013-07-26 01:00:00,
2013-07-25 20:05:00,76.9,71.0,30.02,ESE,123,0.0,0.0,82,0.00,,,0.03,16,Wunderground v.1.15,2013-07-26 01:05:00,
2013-07-25 20:10:00,77.5,71.2,30.02,ESE,123,0.0,0.0,81,0.00,,,0.03,14,Wunderground v.1.15,2013-07-26 01:10:00,
2013-07-25 20:15:00,77.2,70.9,30.02,ESE,123,0.0,0.0,81,0.00,,,0.03,12,Wunderground v.1.15,2013-07-26 01:15:00,
2013-07-25 20:20:00,76.9,70.6,30.02,ESE,123,0.0,0.0,81,0.00,,,0.03,7,Wunderground v.1.15,2013-07-26 01:20:00,
2013-07-25 20:25:00,76.2,71.0,30.02,ESE,123,0.0,0.0,84,0.00,,,0.03,5,Wunderground v.1.15,2013-07-26 01:25:00,
2013-07-25 20:35:00,76.7,71.8,30.02,ESE,123,0.0,0.0,85,0.00,,,0.03,0,Wunderground v.1.15,2013-07-26 01:35:00,
2013-07-25 20:45:00,77.6,71.7,30.02,ESE,123,0.0,0.0,82,0.00,,,0.03,0,Wunderground v.1.15,2013-07-26 01:45:00,
2013-07-25 20:55:00,77.6,71.7,30.02,ESE,123,0.0,0.0,82,0.00,,,0.03,0,Wunderground v.1.15,2013-07-26 01:55:00,
2013-07-25 21:00:00,78.2,71.9,30.02,ESE,123,0.0,0.0,81,0.00,,,0.03,0,Wunderground v.1.15,2013-07-26 02:00:00,
2013-07-25 21:10:00,78.6,71.5,30.02,ESE,122,0.0,0.0,79,0.00,,,0.03,0,Wunderground v.1.15,2013-07-26 02:10:00,
2013-07-25 21:20:00,77.2,70.5,30.02,ESE,122,0.0,0.0,80,0.00,,,0.03,0,Wunderground v.1.15,2013-07-26 02:20:00,
2013-07-25 21:25:00,76.0,70.1,30.03,ESE,122,0.0,2.0,82,0.00,,,0.03,0,Wunderground v.1.15,2013-07-26 02:25:00,
2013-07-25 21:35:00,75.4,70.2,30.03,ESE,122,0.0,0.0,84,0.00,,,0.03,0,Wunderground v.1.15,2013-07-26 02:35:00,
2013-07-25 21:45:00,75.0,69.8,30.03,ESE,122,0.0,0.0,84,0.00,,,0.03,0,Wunderground v.1.15,2013-07-26 02:45:00,
2013-07-25 21:50:00,74.6,69.4,30.02,ESE,122,0.0,0.0,84,0.00,,,0.03,0,Wunderground v.1.15,2013-07-26 02:50:00,
2013-07-25 22:00:00,73.9,69.1,30.03,ESE,122,0.0,0.0,85,0.00,,,0.03,0,Wunderground v.1.15,2013-07-26 03:00:00,
2013-07-25 22:05:00,73.9,69.1,30.03,ESE,122,0.0,0.0,85,0.00,,,0.03,0,Wunderground v.1.15,2013-07-26 03:05:00,
2013-07-25 22:15:00,73.7,68.9,30.02,ESE,122,0.0,2.0,85,0.00,,,0.03,0,Wunderground v.1.15,2013-07-26 03:15:00,
2013-07-25 22:20:00,73.4,69.0,30.01,ESE,121,1.0,1.0,86,0.00,,,0.03,0,Wunderground v.1.15,2013-07-26 03:20:00,
2013-07-25 22:30:00,74.1,69.3,30.02,ESE,121,0.0,0.0,85,0.00,,,0.03,0,Wunderground v.1.15,2013-07-26 03:30:00,
2013-07-25 22:35:00,74.1,69.3,30.02,ESE,121,0.0,0.0,85,0.00,,,0.03,0,Wunderground v.1.15,2013-07-26 03:35:00,
2013-07-25 22:45:00,73.6,68.5,30.02,ESE,121,0.0,0.0,84,0.00,,,0.03,0,Wunderground v.1.15,2013-07-26 03:45:00,
2013-07-25 22:50:00,73.4,68.6,30.02,ESE,121,0.0,0.0,85,0.00,,,0.03,0,Wunderground v.1.15,2013-07-26 03:50:00,
2013-07-25 23:00:00,73.3,68.5,30.02,ESE,121,0.0,0.0,85,0.00,,,0.03,0,Wunderground v.1.15,2013-07-26 04:00:00,
2013-07-25 23:05:00,73.6,68.8,30.02,ESE,121,0.0,0.0,85,0.00,,,0.03,0,Wunderground v.1.15,2013-07-26 04:05:00,
2013-07-25 23:15:00,73.6,68.8,30.02,ESE,121,0.0,0.0,85,0.00,,,0.03,0,Wunderground v.1.15,2013-07-26 04:15:00,
2013-07-25 23:20:00,73.5,68.7,30.02,ESE,121,0.0,0.0,85,0.00,,,0.03,0,Wunderground v.1.15,2013-07-26 04:20:00,
2013-07-25 23:25:00,73.3,68.5,30.03,ESE,121,0.0,0.0,85,0.00,,,0.03,0,Wunderground v.1.15,2013-07-26 04:25:00,
2013-07-25 23:30:00,73.1,68.7,30.03,ESE,121,0.0,0.0,86,0.00,,,0.03,0,Wunderground v.1.15,2013-07-26 04:30:00,
2013-07-25 23:40:00,72.8,68.4,30.02,ESE,121,0.0,0.0,86,0.00,,,0.03,0,Wunderground v.1.15,2013-07-26 04:40:00,
2013-07-25 23:50:00,72.8,68.4,30.03,ESE,121,0.0,0.0,86,0.00,,,0.03,0,Wunderground v.1.15,2013-07-26 04:50:00,
2013-07-25 23:55:00,72.9,68.5,30.03,ESE,121,0.0,0.0,86,0.00,,,0.03,0,Wunderground v.1.15,2013-07-26 04:55:00,